createdAt,value
2017-08-02T00:00:03.624Z,32.15
2017-08-02T00:00:07.921Z,31.90
2017-08-02T00:00:12.196Z,32.20
2017-08-02T00:00:16.459Z,32.47
2017-08-02T00:00:20.722Z,32.55
2017-08-02T00:00:24.969Z,32.35
2017-08-02T00:00:29.290Z,32.03
2017-08-02T00:00:33.604Z,32.10
2017-08-02T00:00:37.872Z,32.10
2017-08-02T00:00:42.128Z,31.97
2017-08-02T00:00:46.397Z,31.85
2017-08-02T00:00:50.671Z,31.95
2017-08-02T00:00:54.936Z,32.00
2017-08-02T00:00:59.239Z,32.10
2017-08-02T00:01:03.543Z,32.05
2017-08-02T00:01:07.811Z,31.90
2017-08-02T00:01:12.067Z,31.60
2017-08-02T00:01:16.367Z,31.40
2017-08-02T00:01:20.620Z,30.95
2017-08-02T00:01:24.882Z,30.95
2017-08-02T00:01:29.163Z,31.23
2017-08-02T00:01:33.420Z,31.00
2017-08-02T00:01:37.677Z,30.55
2017-08-02T00:01:42.001Z,30.30
2017-08-02T00:01:46.250Z,30.25
2017-08-02T00:01:50.519Z,29.90
2017-08-02T00:01:54.815Z,29.70
2017-08-02T00:01:59.058Z,29.47
2017-08-02T00:02:03.316Z,29.55
2017-08-02T00:02:07.624Z,29.65
2017-08-02T00:02:11.879Z,29.77
2017-08-02T00:02:16.167Z,29.75
2017-08-02T00:02:20.457Z,30.00
2017-08-02T00:02:24.692Z,29.95
2017-08-02T00:02:29.009Z,29.87
2017-08-02T00:02:33.269Z,30.15
2017-08-02T00:02:37.721Z,30.10
2017-08-02T00:02:42.344Z,30.30
2017-08-02T00:02:46.603Z,30.30
2017-08-02T00:02:50.864Z,30.43
2017-08-02T00:02:55.136Z,30.60
2017-08-02T00:02:59.479Z,30.75
2017-08-02T00:03:03.756Z,30.67
2017-08-02T00:03:08.024Z,30.70
2017-08-02T00:03:12.281Z,30.85
2017-08-02T00:03:16.537Z,31.15
2017-08-02T00:03:20.832Z,31.47
2017-08-02T00:03:25.091Z,31.70
2017-08-02T00:03:29.384Z,31.50
2017-08-02T00:03:33.692Z,31.40
2017-08-02T00:03:37.947Z,31.50
2017-08-02T00:03:42.208Z,31.55
2017-08-02T00:03:46.586Z,31.25
2017-08-02T00:03:50.827Z,30.90
2017-08-02T00:03:55.156Z,30.85
2017-08-02T00:03:59.412Z,30.90
2017-08-02T00:04:03.681Z,30.90
2017-08-02T00:04:07.947Z,30.55
2017-08-02T00:04:12.221Z,30.50
2017-08-02T00:04:16.501Z,30.00
2017-08-02T00:04:20.763Z,29.60
2017-08-02T00:04:25.069Z,29.25
2017-08-02T00:04:29.335Z,29.20
2017-08-02T00:04:33.591Z,29.13
2017-08-02T00:04:37.871Z,29.20
2017-08-02T00:04:42.129Z,29.20
2017-08-02T00:04:46.433Z,29.67
2017-08-02T00:04:50.688Z,29.75
2017-08-02T00:04:54.980Z,29.80
2017-08-02T00:04:59.260Z,29.70
2017-08-02T00:05:03.531Z,29.47
2017-08-02T00:05:07.788Z,29.80
2017-08-02T00:05:12.064Z,29.90
2017-08-02T00:05:16.333Z,30.00
2017-08-02T00:05:20.579Z,30.25
2017-08-02T00:05:24.902Z,30.35
2017-08-02T00:05:29.141Z,30.25
2017-08-02T00:05:33.403Z,30.20
2017-08-02T00:05:37.672Z,30.20
2017-08-02T00:05:41.939Z,30.35
2017-08-02T00:05:46.200Z,30.37
2017-08-02T00:05:50.463Z,30.35
2017-08-02T00:05:54.740Z,30.50
2017-08-02T00:05:59.004Z,30.30
2017-08-02T00:06:03.285Z,30.70
2017-08-02T00:06:07.520Z,30.90
2017-08-02T00:06:11.833Z,30.80
2017-08-02T00:06:16.093Z,30.70
2017-08-02T00:06:20.347Z,30.75
2017-08-02T00:06:24.632Z,30.90
2017-08-02T00:06:28.883Z,31.20
2017-08-02T00:06:33.139Z,31.40
2017-08-02T00:06:37.495Z,31.10
2017-08-02T00:06:41.771Z,30.55
2017-08-02T00:06:46.053Z,30.60
2017-08-02T00:06:50.313Z,30.55
2017-08-02T00:06:54.567Z,30.25
2017-08-02T00:06:58.813Z,30.45
2017-08-02T00:07:03.107Z,30.00
2017-08-02T00:07:07.362Z,29.60
2017-08-02T00:07:11.640Z,29.65
2017-08-02T00:07:15.903Z,29.53
2017-08-02T00:07:20.166Z,29.05
2017-08-02T00:07:24.411Z,28.80
2017-08-02T00:07:28.731Z,28.25
2017-08-02T00:07:32.995Z,28.10
2017-08-02T00:07:37.264Z,27.90
2017-08-02T00:07:41.559Z,27.90
2017-08-02T00:07:45.815Z,27.33
2017-08-02T00:07:50.240Z,27.35
2017-08-02T00:07:54.536Z,27.25
2017-08-02T00:07:58.791Z,27.20
2017-08-02T00:08:03.052Z,27.50
2017-08-02T00:08:07.352Z,27.60
2017-08-02T00:08:11.628Z,27.40
2017-08-02T00:08:15.892Z,27.43
2017-08-02T00:08:20.170Z,27.60
2017-08-02T00:08:24.420Z,27.90
2017-08-02T00:08:28.720Z,28.17
2017-08-02T00:08:32.980Z,28.20
2017-08-02T00:08:37.233Z,28.10
2017-08-02T00:08:41.576Z,28.25
2017-08-02T00:08:45.823Z,28.50
2017-08-02T00:08:50.096Z,28.35
2017-08-02T00:08:54.384Z,27.95
2017-08-02T00:08:58.641Z,27.97
2017-08-02T00:09:02.903Z,27.95
2017-08-02T00:09:07.224Z,27.70
2017-08-02T00:09:11.468Z,27.80
2017-08-02T00:09:15.724Z,28.30
2017-08-02T00:09:20.231Z,28.55
2017-08-02T00:09:24.484Z,28.60
2017-08-02T00:09:28.739Z,28.50
2017-08-02T00:09:33.015Z,28.60
2017-08-02T00:09:37.277Z,29.10
2017-08-02T00:09:41.600Z,29.30
2017-08-02T00:09:45.898Z,29.10
2017-08-02T00:09:50.136Z,28.95
2017-08-02T00:09:54.484Z,29.37
2017-08-02T00:09:58.872Z,29.20
2017-08-02T00:10:03.153Z,29.25
2017-08-02T00:10:07.412Z,29.37
2017-08-02T00:10:11.668Z,29.25
2017-08-02T00:10:15.984Z,28.80
2017-08-02T00:10:20.256Z,28.40
2017-08-02T00:10:24.519Z,28.30
2017-08-02T00:10:28.782Z,28.25
2017-08-02T00:10:33.076Z,28.05
2017-08-02T00:10:37.336Z,27.53
2017-08-02T00:10:41.624Z,27.25
2017-08-02T00:10:45.942Z,27.25
2017-08-02T00:10:50.189Z,27.50
2017-08-02T00:10:54.434Z,27.80
2017-08-02T00:10:58.692Z,27.90
2017-08-02T00:11:02.956Z,27.80
2017-08-02T00:11:07.215Z,27.60
2017-08-02T00:11:11.485Z,27.30
2017-08-02T00:11:15.736Z,27.35
2017-08-02T00:11:20.051Z,27.30
2017-08-02T00:11:24.324Z,27.05
2017-08-02T00:11:28.589Z,27.30
2017-08-02T00:11:32.849Z,27.40
2017-08-02T00:11:37.136Z,27.70
2017-08-02T00:11:41.393Z,28.05
2017-08-02T00:11:45.652Z,28.10
2017-08-02T00:11:50.019Z,28.53
2017-08-02T00:11:54.296Z,28.60
2017-08-02T00:11:58.548Z,28.50
2017-08-02T00:12:02.840Z,28.60
2017-08-02T00:12:07.112Z,28.53
2017-08-02T00:12:11.368Z,28.80
2017-08-02T00:12:15.624Z,28.85
2017-08-02T00:12:19.895Z,28.87
2017-08-02T00:12:24.160Z,29.00
2017-08-02T00:12:28.458Z,28.80
2017-08-02T00:12:32.696Z,28.80
2017-08-02T00:12:37.009Z,28.70
2017-08-02T00:12:41.268Z,28.30
2017-08-02T00:12:45.525Z,28.40
2017-08-02T00:12:49.816Z,28.00
2017-08-02T00:12:54.089Z,27.85
2017-08-02T00:12:58.349Z,27.70
2017-08-02T00:13:02.639Z,27.70
2017-08-02T00:13:06.901Z,27.80
2017-08-02T00:13:11.213Z,27.80
2017-08-02T00:13:15.536Z,27.90
2017-08-02T00:13:19.787Z,28.07
2017-08-02T00:13:24.115Z,28.00
2017-08-02T00:13:28.519Z,27.85
2017-08-02T00:13:32.780Z,27.70
2017-08-02T00:13:37.074Z,27.70
2017-08-02T00:13:41.460Z,27.90
2017-08-02T00:13:45.718Z,27.60
2017-08-02T00:13:49.996Z,27.35
2017-08-02T00:13:54.266Z,27.45
2017-08-02T00:13:58.516Z,27.57
2017-08-02T00:14:02.796Z,27.25
2017-08-02T00:14:07.101Z,27.55
2017-08-02T00:14:11.848Z,27.80
2017-08-02T00:14:16.190Z,27.53
2017-08-02T00:14:20.481Z,27.67
2017-08-02T00:14:24.718Z,28.00
2017-08-02T00:14:28.964Z,28.35
2017-08-02T00:14:33.223Z,28.50
2017-08-02T00:14:37.499Z,28.70
2017-08-02T00:14:41.781Z,28.80
2017-08-02T00:14:46.056Z,28.95
2017-08-02T00:14:50.299Z,29.35
2017-08-02T00:14:54.580Z,29.20
2017-08-02T00:14:58.853Z,29.20
2017-08-02T00:15:03.092Z,29.10
2017-08-02T00:15:07.380Z,28.87
2017-08-02T00:15:11.648Z,28.85
2017-08-02T00:15:15.908Z,28.95
2017-08-02T00:15:20.247Z,28.85
2017-08-02T00:15:24.560Z,28.83
2017-08-02T00:15:28.804Z,28.55
2017-08-02T00:15:33.101Z,28.50
2017-08-02T00:15:37.355Z,28.63
2017-08-02T00:15:41.607Z,28.50
2017-08-02T00:15:45.926Z,28.60
2017-08-02T00:15:50.184Z,28.73
2017-08-02T00:15:54.452Z,28.80
2017-08-02T00:15:58.742Z,28.90
2017-08-02T00:16:02.988Z,29.30
2017-08-02T00:16:07.260Z,29.33
2017-08-02T00:16:11.575Z,29.60
2017-08-02T00:16:15.885Z,29.75
2017-08-02T00:16:20.166Z,29.87
2017-08-02T00:16:24.450Z,29.90
2017-08-02T00:16:28.723Z,30.30
2017-08-02T00:16:33.004Z,30.43
2017-08-02T00:16:37.260Z,30.40
2017-08-02T00:16:41.536Z,30.75
2017-08-02T00:16:45.799Z,30.70
2017-08-02T00:16:50.075Z,30.57
2017-08-02T00:16:54.324Z,30.35
2017-08-02T00:16:58.604Z,30.20
2017-08-02T00:17:02.871Z,30.25
2017-08-02T00:17:07.131Z,30.30
2017-08-02T00:17:11.427Z,30.40
2017-08-02T00:17:15.688Z,30.30
2017-08-02T00:17:19.954Z,30.73
2017-08-02T00:17:24.216Z,31.05
2017-08-02T00:17:28.487Z,31.20
2017-08-02T00:17:32.743Z,31.45
2017-08-02T00:17:37.024Z,31.40
2017-08-02T00:17:41.281Z,31.60
2017-08-02T00:17:45.533Z,31.70
2017-08-02T00:17:49.841Z,32.00
2017-08-02T00:17:54.108Z,32.30
2017-08-02T00:17:58.364Z,32.45
2017-08-02T00:18:02.695Z,32.25
2017-08-02T00:18:06.948Z,32.40
2017-08-02T00:18:11.216Z,32.20
2017-08-02T00:18:15.469Z,32.00
2017-08-02T00:18:19.739Z,32.07
2017-08-02T00:18:23.996Z,31.95
2017-08-02T00:18:28.273Z,31.60
2017-08-02T00:18:32.516Z,31.20
2017-08-02T00:18:36.852Z,31.47
2017-08-02T00:18:41.101Z,31.30
2017-08-02T00:18:45.356Z,31.40
2017-08-02T00:18:49.691Z,31.30
2017-08-02T00:18:53.936Z,31.30
2017-08-02T00:18:58.194Z,31.40
2017-08-02T00:19:02.571Z,31.75
2017-08-02T00:19:06.826Z,31.70
2017-08-02T00:19:11.079Z,31.90
2017-08-02T00:19:15.330Z,32.05
2017-08-02T00:19:19.591Z,31.40
2017-08-02T00:19:23.841Z,31.35
2017-08-02T00:19:28.126Z,31.40
2017-08-02T00:19:32.380Z,31.17
2017-08-02T00:19:36.648Z,30.65
2017-08-02T00:19:40.904Z,30.70
2017-08-02T00:19:45.160Z,30.80
2017-08-02T00:19:49.455Z,30.50
2017-08-02T00:19:53.749Z,30.50
2017-08-02T00:19:58.047Z,30.40
2017-08-02T00:20:02.325Z,30.47
2017-08-02T00:20:06.603Z,30.20
2017-08-02T00:20:10.871Z,29.85
2017-08-02T00:20:15.128Z,29.85
2017-08-02T00:20:19.387Z,30.23
2017-08-02T00:20:23.666Z,30.00
2017-08-02T00:20:27.947Z,30.05
2017-08-02T00:20:32.204Z,30.30
2017-08-02T00:20:36.459Z,30.30
2017-08-02T00:20:40.763Z,29.90
2017-08-02T00:20:45.056Z,29.70
2017-08-02T00:20:49.322Z,29.80
2017-08-02T00:20:53.673Z,29.85
2017-08-02T00:20:57.930Z,29.80
2017-08-02T00:21:02.199Z,29.43
2017-08-02T00:21:06.508Z,29.55
2017-08-02T00:21:10.769Z,29.80
2017-08-02T00:21:15.046Z,29.80
2017-08-02T00:21:19.345Z,29.60
2017-08-02T00:21:23.584Z,29.60
2017-08-02T00:21:27.836Z,29.75
2017-08-02T00:21:32.119Z,29.83
2017-08-02T00:21:36.372Z,30.00
2017-08-02T00:21:40.652Z,30.25
2017-08-02T00:21:44.949Z,30.55
2017-08-02T00:21:49.197Z,30.53
2017-08-02T00:21:53.488Z,30.45
2017-08-02T00:21:57.786Z,30.45
2017-08-02T00:22:02.044Z,30.80
2017-08-02T00:22:06.298Z,31.00
2017-08-02T00:22:10.574Z,30.80
2017-08-02T00:22:14.843Z,30.80
2017-08-02T00:22:19.137Z,30.80
2017-08-02T00:22:23.386Z,30.85
2017-08-02T00:22:27.648Z,30.90
2017-08-02T00:22:31.928Z,30.97
2017-08-02T00:22:36.175Z,31.35
2017-08-02T00:22:40.440Z,31.50
2017-08-02T00:22:44.722Z,31.30
2017-08-02T00:22:48.977Z,31.37
2017-08-02T00:22:53.234Z,31.50
2017-08-02T00:22:57.543Z,31.55
2017-08-02T00:23:01.812Z,31.63
2017-08-02T00:23:06.077Z,31.70
2017-08-02T00:23:10.365Z,31.80
2017-08-02T00:23:14.632Z,31.93
2017-08-02T00:23:18.900Z,32.40
2017-08-02T00:23:23.150Z,32.50
2017-08-02T00:23:27.414Z,32.40
2017-08-02T00:23:31.683Z,32.60
2017-08-02T00:23:35.944Z,32.45
2017-08-02T00:23:40.188Z,32.30
2017-08-02T00:23:44.443Z,32.50
2017-08-02T00:23:48.711Z,32.70
2017-08-02T00:23:52.967Z,32.65
2017-08-02T00:23:57.995Z,32.60
2017-08-02T00:24:03.043Z,32.57
2017-08-02T00:24:07.295Z,32.27
2017-08-02T00:24:11.908Z,32.27
2017-08-02T00:24:16.950Z,32.00
2017-08-02T00:24:21.990Z,31.97
2017-08-02T00:24:26.243Z,32.63
2017-08-02T00:24:31.271Z,32.50
2017-08-02T00:24:36.303Z,32.33
2017-08-02T00:24:40.583Z,32.70
2017-08-02T00:24:44.879Z,32.70
2017-08-02T00:24:49.228Z,32.25
2017-08-02T00:24:53.491Z,32.23
2017-08-02T00:24:58.519Z,32.50
2017-08-02T00:25:03.568Z,32.80
2017-08-02T00:25:07.847Z,32.87
2017-08-02T00:25:12.851Z,33.35
2017-08-02T00:25:17.872Z,33.40
2017-08-02T00:25:22.906Z,33.43
2017-08-02T00:25:27.223Z,32.88
2017-08-02T00:25:31.520Z,32.70
2017-08-02T00:25:35.812Z,32.70
2017-08-02T00:25:40.093Z,32.50
2017-08-02T00:25:45.127Z,32.50
2017-08-02T00:25:49.384Z,32.57
2017-08-02T00:25:53.663Z,32.95
2017-08-02T00:25:57.929Z,33.00
2017-08-02T00:26:02.239Z,32.70
2017-08-02T00:26:06.576Z,32.70
2017-08-02T00:26:10.817Z,32.60
2017-08-02T00:26:15.096Z,32.37
2017-08-02T00:26:19.355Z,32.20
2017-08-02T00:26:23.607Z,32.00
2017-08-02T00:26:28.647Z,32.20
2017-08-02T00:26:32.932Z,32.03
2017-08-02T00:26:37.951Z,31.90
2017-08-02T00:26:43.672Z,31.90
2017-08-02T00:26:47.944Z,31.87
2017-08-02T00:26:52.249Z,31.80
2017-08-02T00:26:56.511Z,31.65
2017-08-02T00:27:00.805Z,31.50
2017-08-02T00:27:05.075Z,31.53
2017-08-02T00:27:09.328Z,31.55
2017-08-02T00:27:13.591Z,31.75
2017-08-02T00:27:18.627Z,32.03
2017-08-02T00:27:22.888Z,32.43
2017-08-02T00:27:27.192Z,32.20
2017-08-02T00:27:31.469Z,32.50
2017-08-02T00:27:35.754Z,32.60
2017-08-02T00:27:40.033Z,32.45
2017-08-02T00:27:44.328Z,32.45
2017-08-02T00:27:48.599Z,32.70
2017-08-02T00:27:52.888Z,32.60
2017-08-02T00:27:57.196Z,32.50
2017-08-02T00:28:01.481Z,32.75
2017-08-02T00:28:05.776Z,33.00
2017-08-02T00:28:10.043Z,33.00
2017-08-02T00:28:14.299Z,32.85
2017-08-02T00:28:18.595Z,32.65
2017-08-02T00:28:22.920Z,32.43
2017-08-02T00:28:27.943Z,32.45
2017-08-02T00:28:32.968Z,32.50
2017-08-02T00:28:37.994Z,32.63
2017-08-02T00:28:42.263Z,32.70
2017-08-02T00:28:46.515Z,32.73
2017-08-02T00:28:50.778Z,32.75
2017-08-02T00:28:55.803Z,32.70
2017-08-02T00:29:00.096Z,33.20
2017-08-02T00:29:05.114Z,33.10
2017-08-02T00:29:09.387Z,33.00
2017-08-02T00:29:13.701Z,33.17
2017-08-02T00:29:17.979Z,32.95
2017-08-02T00:29:23.204Z,32.87
2017-08-02T00:29:27.508Z,33.23
2017-08-02T00:29:31.766Z,33.75
2017-08-02T00:29:36.028Z,33.75
2017-08-02T00:29:40.289Z,33.53
2017-08-02T00:29:44.571Z,33.45
2017-08-02T00:29:48.831Z,33.25
2017-08-02T00:29:53.089Z,33.15
2017-08-02T00:29:57.378Z,32.60
2017-08-02T00:30:01.634Z,32.30
2017-08-02T00:30:05.925Z,32.25
2017-08-02T00:30:10.212Z,31.90
2017-08-02T00:30:14.479Z,31.95
2017-08-02T00:30:18.731Z,32.05
2017-08-02T00:30:23.032Z,32.10
2017-08-02T00:30:27.504Z,31.60
2017-08-02T00:30:31.771Z,30.85
2017-08-02T00:30:36.051Z,30.60
2017-08-02T00:30:40.304Z,30.70
2017-08-02T00:30:44.628Z,30.40
2017-08-02T00:30:48.896Z,30.30
2017-08-02T00:30:53.167Z,30.00
2017-08-02T00:30:57.443Z,30.10
2017-08-02T00:31:01.709Z,30.00
2017-08-02T00:31:05.969Z,29.80
2017-08-02T00:31:10.243Z,30.03
2017-08-02T00:31:14.515Z,30.30
2017-08-02T00:31:18.779Z,30.40
2017-08-02T00:31:23.047Z,30.40
2017-08-02T00:31:27.311Z,30.75
2017-08-02T00:31:31.575Z,30.95
2017-08-02T00:31:35.828Z,31.00
2017-08-02T00:31:40.123Z,31.07
2017-08-02T00:31:44.371Z,31.35
2017-08-02T00:31:48.642Z,31.70
2017-08-02T00:31:52.922Z,32.37
2017-08-02T00:31:57.180Z,32.40
2017-08-02T00:32:01.447Z,32.50
2017-08-02T00:32:05.712Z,32.70
2017-08-02T00:32:09.980Z,32.70
2017-08-02T00:32:14.280Z,32.50
2017-08-02T00:32:18.539Z,32.50
2017-08-02T00:32:22.840Z,32.73
2017-08-02T00:32:27.157Z,32.90
2017-08-02T00:32:31.400Z,33.00
2017-08-02T00:32:35.656Z,33.00
2017-08-02T00:32:39.940Z,32.93
2017-08-02T00:32:44.204Z,33.10
2017-08-02T00:32:48.464Z,33.05
2017-08-02T00:32:52.723Z,32.83
2017-08-02T00:32:56.989Z,33.00
2017-08-02T00:33:01.292Z,32.95
2017-08-02T00:33:05.563Z,33.05
2017-08-02T00:33:09.811Z,32.80
2017-08-02T00:33:14.068Z,32.55
2017-08-02T00:33:18.355Z,32.40
2017-08-02T00:33:22.633Z,32.13
2017-08-02T00:33:26.885Z,31.95
2017-08-02T00:33:31.174Z,31.85
2017-08-02T00:33:35.426Z,31.80
2017-08-02T00:33:39.696Z,31.90
2017-08-02T00:33:43.960Z,32.00
2017-08-02T00:33:48.219Z,31.85
2017-08-02T00:33:52.495Z,32.10
2017-08-02T00:33:56.763Z,32.10
2017-08-02T00:34:01.020Z,32.20
2017-08-02T00:34:05.280Z,32.00
2017-08-02T00:34:09.549Z,32.00
2017-08-02T00:34:13.832Z,32.00
2017-08-02T00:34:18.108Z,32.10
2017-08-02T00:34:22.365Z,31.97
2017-08-02T00:34:26.624Z,31.85
2017-08-02T00:34:30.969Z,31.80
2017-08-02T00:34:35.223Z,32.05
2017-08-02T00:34:39.491Z,32.13
2017-08-02T00:34:43.763Z,31.65
2017-08-02T00:34:48.008Z,31.45
2017-08-02T00:34:52.275Z,30.83
2017-08-02T00:34:56.527Z,30.65
2017-08-02T00:35:00.775Z,30.40
2017-08-02T00:35:05.028Z,30.40
2017-08-02T00:35:09.364Z,30.47
2017-08-02T00:35:13.631Z,30.40
2017-08-02T00:35:17.884Z,30.25
2017-08-02T00:35:22.154Z,30.33
2017-08-02T00:35:26.515Z,30.25
2017-08-02T00:35:30.811Z,29.85
2017-08-02T00:35:35.071Z,29.50
2017-08-02T00:35:39.335Z,29.37
2017-08-02T00:35:43.615Z,29.35
2017-08-02T00:35:47.879Z,29.15
2017-08-02T00:35:52.149Z,29.03
2017-08-02T00:35:56.439Z,29.20
2017-08-02T00:36:00.697Z,29.15
2017-08-02T00:36:04.952Z,29.10
2017-08-02T00:36:09.274Z,28.97
2017-08-02T00:36:13.523Z,29.25
2017-08-02T00:36:17.795Z,29.25
2017-08-02T00:36:22.106Z,29.03
2017-08-02T00:36:26.356Z,28.80
2017-08-02T00:36:30.623Z,29.15
2017-08-02T00:36:34.933Z,29.40
2017-08-02T00:36:39.167Z,29.40
2017-08-02T00:36:43.441Z,29.60
2017-08-02T00:36:47.687Z,29.90
2017-08-02T00:36:51.956Z,29.93
2017-08-02T00:36:56.224Z,30.30
2017-08-02T00:37:00.493Z,30.10
2017-08-02T00:37:04.771Z,30.00
2017-08-02T00:37:09.056Z,30.10
2017-08-02T00:37:13.316Z,29.95
2017-08-02T00:37:17.620Z,29.70
2017-08-02T00:37:21.919Z,29.87
2017-08-02T00:37:26.188Z,30.15
2017-08-02T00:37:30.479Z,30.20
2017-08-02T00:37:34.760Z,30.20
2017-08-02T00:37:39.017Z,30.10
2017-08-02T00:37:43.279Z,29.75
2017-08-02T00:37:47.563Z,29.75
2017-08-02T00:37:51.819Z,29.87
2017-08-02T00:37:56.072Z,29.25
2017-08-02T00:38:00.402Z,29.40
2017-08-02T00:38:04.648Z,29.47
2017-08-02T00:38:08.909Z,29.35
2017-08-02T00:38:13.214Z,29.35
2017-08-02T00:38:17.464Z,29.50
2017-08-02T00:38:21.744Z,29.10
2017-08-02T00:38:25.997Z,28.85
2017-08-02T00:38:30.255Z,28.85
2017-08-02T00:38:34.531Z,28.80
2017-08-02T00:38:38.801Z,28.90
2017-08-02T00:38:43.075Z,29.10
2017-08-02T00:38:47.335Z,29.00
2017-08-02T00:38:51.603Z,28.83
2017-08-02T00:38:55.860Z,28.95
2017-08-02T00:39:00.132Z,28.90
2017-08-02T00:39:04.401Z,29.00
2017-08-02T00:39:08.660Z,28.90
2017-08-02T00:39:12.931Z,28.95
2017-08-02T00:39:17.188Z,28.80
2017-08-02T00:39:21.463Z,28.97
2017-08-02T00:39:25.736Z,29.25
2017-08-02T00:39:29.988Z,29.10
2017-08-02T00:39:34.249Z,29.15
2017-08-02T00:39:38.567Z,28.93
2017-08-02T00:39:42.867Z,28.95
2017-08-02T00:39:47.116Z,29.00
2017-08-02T00:39:51.385Z,29.27
2017-08-02T00:39:55.636Z,29.15
2017-08-02T00:39:59.947Z,29.20
2017-08-02T00:40:04.242Z,29.20
2017-08-02T00:40:08.491Z,29.10
2017-08-02T00:40:12.747Z,29.00
2017-08-02T00:40:17.024Z,29.10
2017-08-02T00:40:21.289Z,29.37
2017-08-02T00:40:25.540Z,29.10
2017-08-02T00:40:29.811Z,29.25
2017-08-02T00:40:34.051Z,29.30
2017-08-02T00:40:38.324Z,29.47
2017-08-02T00:40:42.627Z,29.35
2017-08-02T00:40:46.924Z,29.10
2017-08-02T00:40:51.217Z,28.80
2017-08-02T00:40:55.492Z,29.25
2017-08-02T00:40:59.739Z,29.60
2017-08-02T00:41:04.032Z,29.47
2017-08-02T00:41:08.305Z,29.75
2017-08-02T00:41:12.576Z,29.80
2017-08-02T00:41:16.854Z,30.05
2017-08-02T00:41:21.124Z,30.10
2017-08-02T00:41:25.387Z,30.10
2017-08-02T00:41:29.676Z,29.85
2017-08-02T00:41:33.928Z,29.50
2017-08-02T00:41:38.183Z,29.25
2017-08-02T00:41:42.479Z,29.20
2017-08-02T00:41:46.780Z,29.15
2017-08-02T00:41:51.044Z,29.17
2017-08-02T00:41:55.296Z,28.40
2017-08-02T00:41:59.543Z,27.70
2017-08-02T00:42:03.806Z,27.50
2017-08-02T00:42:08.065Z,27.25
2017-08-02T00:42:12.365Z,27.20
2017-08-02T00:42:16.603Z,27.05
2017-08-02T00:42:20.911Z,26.57
2017-08-02T00:42:25.169Z,26.45
2017-08-02T00:42:29.443Z,26.40
2017-08-02T00:42:33.740Z,26.53
2017-08-02T00:42:38.021Z,26.50
2017-08-02T00:42:42.277Z,26.90
2017-08-02T00:42:46.532Z,27.25
2017-08-02T00:42:50.813Z,26.97
2017-08-02T00:42:55.089Z,27.25
2017-08-02T00:42:59.347Z,27.90
2017-08-02T00:43:03.607Z,28.40
2017-08-02T00:43:07.870Z,28.35
2017-08-02T00:43:12.142Z,28.45
2017-08-02T00:43:16.411Z,28.50
2017-08-02T00:43:20.675Z,28.77
2017-08-02T00:43:24.935Z,28.90
2017-08-02T00:43:29.191Z,29.15
2017-08-02T00:43:33.475Z,29.00
2017-08-02T00:43:37.800Z,29.30
2017-08-02T00:43:42.044Z,29.20
2017-08-02T00:43:46.300Z,29.25
2017-08-02T00:43:50.563Z,29.57
2017-08-02T00:43:54.821Z,29.65
2017-08-02T00:43:59.129Z,29.50
2017-08-02T00:44:03.385Z,29.27
2017-08-02T00:44:07.676Z,29.30
2017-08-02T00:44:12.689Z,29.40
2017-08-02T00:44:16.927Z,29.40
2017-08-02T00:44:21.188Z,29.45
2017-08-02T00:44:25.463Z,29.90
2017-08-02T00:44:29.710Z,30.15
2017-08-02T00:44:33.969Z,30.40
2017-08-02T00:44:38.244Z,30.15
2017-08-02T00:44:42.508Z,30.10
2017-08-02T00:44:46.767Z,30.25
2017-08-02T00:44:51.038Z,30.30
2017-08-02T00:44:55.300Z,30.20
2017-08-02T00:44:59.564Z,30.10
2017-08-02T00:45:03.838Z,30.25
2017-08-02T00:45:08.087Z,30.30
2017-08-02T00:45:12.355Z,30.20
2017-08-02T00:45:16.608Z,30.20
2017-08-02T00:45:20.855Z,29.80
2017-08-02T00:45:25.123Z,29.57
2017-08-02T00:45:29.441Z,29.15
2017-08-02T00:45:33.687Z,29.10
2017-08-02T00:45:38.003Z,29.10
2017-08-02T00:45:42.251Z,29.30
2017-08-02T00:45:46.508Z,28.95
2017-08-02T00:45:50.788Z,28.90
2017-08-02T00:45:55.034Z,29.33
2017-08-02T00:45:59.302Z,29.50
2017-08-02T00:46:03.552Z,29.40
2017-08-02T00:46:07.816Z,29.20
2017-08-02T00:46:12.115Z,29.03
2017-08-02T00:46:16.372Z,29.00
2017-08-02T00:46:20.664Z,29.45
2017-08-02T00:46:24.919Z,29.50
2017-08-02T00:46:29.188Z,29.40
2017-08-02T00:46:33.479Z,29.40
2017-08-02T00:46:37.775Z,29.70
2017-08-02T00:46:42.039Z,29.70
2017-08-02T00:46:46.309Z,29.85
2017-08-02T00:46:50.574Z,29.85
2017-08-02T00:46:54.828Z,29.20
2017-08-02T00:46:59.086Z,29.00
2017-08-02T00:47:03.391Z,29.00
2017-08-02T00:47:07.648Z,29.20
2017-08-02T00:47:11.925Z,29.50
2017-08-02T00:47:16.219Z,29.35
2017-08-02T00:47:20.475Z,29.10
2017-08-02T00:47:24.736Z,28.90
2017-08-02T00:47:29.021Z,28.95
2017-08-02T00:47:33.270Z,28.95
2017-08-02T00:47:37.529Z,28.85
2017-08-02T00:47:41.793Z,28.93
2017-08-02T00:47:46.051Z,29.00
2017-08-02T00:47:50.304Z,29.00
2017-08-02T00:47:54.596Z,29.15
2017-08-02T00:47:58.852Z,29.30
2017-08-02T00:48:03.125Z,29.20
2017-08-02T00:48:07.405Z,29.10
2017-08-02T00:48:11.672Z,28.77
2017-08-02T00:48:15.930Z,28.85
2017-08-02T00:48:20.196Z,29.05
2017-08-02T00:48:24.468Z,29.10
2017-08-02T00:48:28.788Z,29.00
2017-08-02T00:48:33.048Z,28.85
2017-08-02T00:48:37.317Z,28.60
2017-08-02T00:48:41.645Z,28.37
2017-08-02T00:48:45.907Z,28.10
2017-08-02T00:48:50.173Z,28.30
2017-08-02T00:48:54.440Z,28.30
2017-08-02T00:48:58.700Z,28.35
2017-08-02T00:49:02.966Z,28.50
2017-08-02T00:49:07.262Z,28.55
2017-08-02T00:49:11.508Z,28.73
2017-08-02T00:49:15.772Z,28.75
2017-08-02T00:49:20.067Z,28.70
2017-08-02T00:49:24.324Z,28.90
2017-08-02T00:49:28.587Z,28.90
2017-08-02T00:49:32.895Z,29.10
2017-08-02T00:49:37.153Z,29.60
2017-08-02T00:49:41.433Z,29.57
2017-08-02T00:49:45.770Z,29.80
2017-08-02T00:49:50.022Z,29.55
2017-08-02T00:49:54.291Z,29.40
2017-08-02T00:49:58.607Z,29.25
2017-08-02T00:50:02.851Z,29.20
2017-08-02T00:50:07.123Z,29.10
2017-08-02T00:50:11.444Z,29.20
2017-08-02T00:50:15.684Z,29.30
2017-08-02T00:50:19.955Z,29.80
2017-08-02T00:50:24.232Z,29.63
2017-08-02T00:50:28.483Z,29.70
2017-08-02T00:50:32.763Z,29.80
2017-08-02T00:50:37.048Z,29.55
2017-08-02T00:50:41.293Z,29.57
2017-08-02T00:50:45.655Z,29.65
2017-08-02T00:50:49.915Z,29.60
2017-08-02T00:50:54.179Z,29.57
2017-08-02T00:50:58.472Z,29.60
2017-08-02T00:51:02.728Z,29.50
2017-08-02T00:51:07.004Z,29.50
2017-08-02T00:51:11.302Z,29.20
2017-08-02T00:51:15.547Z,29.10
2017-08-02T00:51:19.804Z,28.70
2017-08-02T00:51:24.083Z,28.90
2017-08-02T00:51:28.335Z,28.95
2017-08-02T00:51:32.596Z,29.00
2017-08-02T00:51:36.865Z,29.00
2017-08-02T00:51:41.135Z,29.25
2017-08-02T00:51:46.205Z,29.50
2017-08-02T00:51:50.512Z,29.53
2017-08-02T00:51:54.780Z,29.35
2017-08-02T00:51:59.052Z,29.50
2017-08-02T00:52:03.382Z,29.50
2017-08-02T00:52:07.639Z,29.40
2017-08-02T00:52:12.667Z,29.50
2017-08-02T00:52:17.733Z,29.43
2017-08-02T00:52:22.027Z,29.40
2017-08-02T00:52:26.283Z,29.00
2017-08-02T00:52:31.332Z,28.70
2017-08-02T00:52:35.584Z,28.70
2017-08-02T00:52:39.844Z,28.80
2017-08-02T00:52:44.104Z,28.85
2017-08-02T00:52:48.435Z,28.80
2017-08-02T00:52:52.736Z,29.20
2017-08-02T00:52:56.992Z,28.95
2017-08-02T00:53:01.260Z,28.80
2017-08-02T00:53:05.535Z,29.10
2017-08-02T00:53:09.813Z,29.20
2017-08-02T00:53:14.832Z,29.65
2017-08-02T00:53:19.103Z,29.73
2017-08-02T00:53:23.428Z,29.85
2017-08-02T00:53:28.457Z,30.17
2017-08-02T00:53:33.476Z,30.47
2017-08-02T00:53:38.496Z,30.53
2017-08-02T00:53:43.553Z,30.47
2017-08-02T00:53:47.920Z,30.27
2017-08-02T00:53:52.825Z,30.25
2017-08-02T00:53:57.189Z,30.83
2017-08-02T00:54:01.434Z,31.30
2017-08-02T00:54:06.471Z,31.30
2017-08-02T00:54:10.992Z,31.47
2017-08-02T00:54:15.243Z,31.20
2017-08-02T00:54:20.295Z,31.10
2017-08-02T00:54:24.595Z,31.03
2017-08-02T00:54:28.856Z,30.65
2017-08-02T00:54:33.147Z,30.00
2017-08-02T00:54:37.421Z,29.80
2017-08-02T00:54:41.690Z,29.35
2017-08-02T00:54:45.977Z,29.20
2017-08-02T00:54:50.995Z,29.20
2017-08-02T00:54:55.286Z,28.67
2017-08-02T00:55:00.392Z,28.25
2017-08-02T00:55:04.639Z,28.07
2017-08-02T00:55:08.900Z,28.00
2017-08-02T00:55:13.179Z,27.70
2017-08-02T00:55:17.434Z,27.95
2017-08-02T00:55:21.705Z,27.90
2017-08-02T00:55:25.980Z,28.25
2017-08-02T00:55:30.251Z,29.03
2017-08-02T00:55:34.512Z,29.40